Latest Weather Observations for Tibooburra Airport

IDN60801

Issued at 3:05 pm EDT Thursday 5 March 2015 (issued every 30 minutes, with the page automatically refreshed every 10 minutes)

About weather observations | Map of weather stations | Latest weather observations for NSW | Other Formats
Station Details ID: 046126 Name: TIBOOBURRA AIRPORT Lat: -29.44 Lon: 142.06 Height: 176.4 m
Data from the previous 72 hours. | See also: Recent months for locations in New South Wales
Date/Time
EDT
Temp
°C
App
Temp
°C
Dew
Point
Rel
Hum
%
Delta-T
°C
Wind Press
QNH
hPa
Press
MSL
hPa
Rain
since 9 am
mm
Dir
 
Spd
km/h
Gust
km/h
Spd
kts
Gust
kts
05/03:00pm 27.6 - - - - S 30 44 16 24 1015.2 1014.3 0.0
05/02:52pm 27.5 - - - - SSE 28 46 15 25 1015.3 1014.4 0.0
05/02:30pm 27.9 - - - - SSE 28 43 15 23 1015.7 1014.8 0.0
05/02:00pm 27.0 - - - - S 28 43 15 23 1016.0 1015.1 0.0
05/01:30pm 26.5 - - - - S 32 44 17 24 1016.9 1015.9 0.0
05/01:00pm 25.6 - - - - SSE 33 46 18 25 1017.2 1016.2 0.0
05/12:30pm 25.8 - - - - SSE 32 44 17 24 1017.6 1016.6 0.0
05/12:00pm 24.5 - - - - S 32 43 17 23 1017.9 1017.0 0.0
05/11:30am 23.5 - - - - SSE 30 41 16 22 1018.2 1017.3 0.0
05/11:00am 22.6 - - - - SSE 33 44 18 24 1018.3 1017.4 0.0
05/10:30am 22.7 - - - - SSE 32 41 17 22 1018.3 1017.4 0.0
05/10:00am 22.7 - - - - SSE 33 43 18 23 1018.1 1017.2 0.0
05/09:30am 21.9 - - - - SSE 32 43 17 23 1018.2 1017.3 0.0
05/09:00am 21.7 - - - - S 35 46 19 25 1017.8 1016.8 0.0
05/08:30am 21.4 - - - - S 33 48 18 26 1017.6 1016.6 0.0
05/08:00am 21.2 - - - - S 32 43 17 23 1016.9 1015.9 0.0
05/07:30am 21.7 - - - - S 28 41 15 22 1016.6 1015.6 0.0
05/07:00am 22.2 - - - - S 26 37 14 20 1015.8 1014.9 0.0
05/06:30am 23.1 - - - - S 33 48 18 26 1015.3 1014.4 0.0
05/06:00am 23.8 - - - - S 30 37 16 20 1014.9 1014.0 0.0
05/05:30am 25.0 - - - - S 26 37 14 20 1014.3 1013.4 0.0
05/05:00am 25.5 - - - - S 20 30 11 16 1013.8 1012.9 0.0
05/04:30am 25.9 - - - - S 20 28 11 15 1013.2 1012.3 0.0
05/04:00am 26.2 - - - - S 22 30 12 16 1013.1 1012.2 0.0
05/03:30am 26.4 - - - - S 24 30 13 16 1013.3 1012.4 0.0
05/03:00am 26.8 - - - - S 24 35 13 19 1013.3 1012.4 0.0
05/02:30am 27.3 - - - - S 28 35 15 19 1013.6 1012.7 0.0
05/02:00am 27.9 - - - - SSW 30 39 16 21 1013.6 1012.7 0.0
05/01:30am 28.4 - - - - S 32 43 17 23 1013.6 1012.7 0.0
05/01:00am 29.0 - - - - S 28 35 15 19 1013.7 1012.8 0.0
05/12:30am 29.6 - - - - SSW 26 33 14 18 1013.8 1012.9 0.0
05/12:00am 30.2 - - - - SSW 17 22 9 12 1013.8 1012.9 0.0
 
Date/Time
EDT
Temp
°C
App
Temp
°C
Dew
Point
Rel
Hum
%
Delta-T
°C
Wind Press
QNH
hPa
Press
MSL
hPa
Rain
since 9 am
mm
Dir
 
Spd
km/h
Gust
km/h
Spd
kts
Gust
kts
04/11:30pm 30.7 - - - - SSW 15 19 8 10 1013.7 1012.8 0.0
04/11:00pm 31.1 - - - - SSW 17 20 9 11 1013.7 1012.8 0.0
04/10:30pm 31.4 - - - - SSW 17 20 9 11 1013.5 1012.6 0.0
04/10:00pm 32.0 - - - - SSW 17 22 9 12 1013.3 1012.4 0.0
04/09:30pm 32.6 - - - - SSW 22 30 12 16 1013.1 1012.2 0.0
04/09:00pm 33.4 - - - - SSW 26 35 14 19 1012.8 1011.9 0.0
04/08:30pm 34.5 - - - - SSW 24 33 13 18 1012.3 1011.3 0.0
04/08:00pm 35.0 - - - - SSW 20 28 11 15 1012.0 1011.0 0.0
04/07:30pm 35.4 - - - - SSW 17 26 9 14 1011.9 1010.9 0.0
04/07:00pm 35.8 - - - - SSW 20 30 11 16 1011.8 1010.8 0.0
04/06:30pm 35.8 - - - - S 19 28 10 15 1011.7 1010.7 0.0
04/06:00pm 37.0 - - - - S 13 24 7 13 1011.5 1010.5 0.0
04/05:30pm 37.1 - - - - SSW 17 24 9 13 1011.5 1010.5 0.0
04/05:00pm 37.2 - - - - SSW 20 32 11 17 1011.7 1010.7 0.0
04/04:30pm 36.9 - - - - SSE 13 30 7 16 1011.8 1010.8 0.0
04/04:00pm 36.5 - - - - SSW 17 26 9 14 1012.2 1011.2 0.0
04/03:30pm 37.0 - - - - S 13 24 7 13 1012.6 1011.6 0.0
04/03:00pm 36.8 - - - - SSE 15 24 8 13 1012.9 1012.0 0.0
04/02:30pm 35.6 - - - - SSE 13 22 7 12 1013.2 1012.3 0.0
04/02:00pm 35.0 - - - - ESE 11 22 6 12 1013.5 1012.6 0.0
04/01:30pm 34.9 - - - - SE 13 22 7 12 1014.0 1013.1 0.0
04/01:00pm 34.1 - - - - ESE 13 28 7 15 1014.4 1013.5 0.0
04/12:30pm 34.2 - - - - E 20 28 11 15 1014.8 1013.9 0.0
04/12:00pm 33.5 - - - - E 19 28 10 15 1015.2 1014.3 0.0
04/11:30am 32.5 - - - - E 22 28 12 15 1015.5 1014.6 0.0
04/11:00am 32.1 - - - - ESE 24 30 13 16 1015.6 1014.7 0.0
04/10:30am 30.5 - - - - ESE 22 30 12 16 1015.6 1014.7 0.0
04/10:00am 29.9 - - - - SE 24 32 13 17 1015.3 1014.4 0.0
04/09:30am 29.0 - - - - SE 20 26 11 14 1015.3 1014.4 0.0
04/09:00am 28.1 - - - - SE 19 24 10 13 1015.0 1014.1 0.0
04/08:30am 27.4 - - - - SSE 17 20 9 11 1014.9 1014.0 0.0
04/08:00am 27.0 - - - - SSE 17 22 9 12 1014.3 1013.4 0.0
04/07:30am 27.1 - - - - SSE 17 22 9 12 1013.7 1012.8 0.0
04/07:00am 27.2 - - - - SSE 17 20 9 11 1013.2 1012.3 0.0
04/06:30am 27.4 - - - - SE 15 17 8 9 1012.8 1011.9 0.0
04/06:00am 27.5 - - - - SE 17 20 9 11 1012.6 1011.6 0.0
04/05:30am 27.4 - - - - SE 15 19 8 10 1012.3 1011.3 0.0
04/05:00am 27.9 - - - - SE 17 24 9 13 1012.2 1011.2 0.0
04/04:30am 28.1 - - - - SSE 22 28 12 15 1012.2 1011.2 0.0
04/04:00am 27.9 - - - - SSE 17 24 9 13 1012.2 1011.2 0.0
04/03:30am 27.9 - - - - SSE 19 22 10 12 1012.3 1011.3 0.0
04/03:00am 28.1 - - - - SSE 19 24 10 13 1012.6 1011.6 0.0
04/02:30am 28.5 - - - - SSE 17 20 9 11 1012.9 1012.0 0.0
04/02:00am 28.8 - - - - SSE 19 24 10 13 1013.1 1012.2 0.0
04/01:30am 29.5 - - - - SSE 20 28 11 15 1013.4 1012.5 0.0
04/01:00am 29.6 - - - - SSE 17 20 9 11 1013.7 1012.8 0.0
04/12:30am 30.2 - - - - SSE 19 24 10 13 1013.6 1012.7 0.0
04/12:00am 30.5 - - - - SSE 19 24 10 13 1013.7 1012.8 0.0
 
Date/Time
EDT
Temp
°C
App
Temp
°C
Dew
Point
Rel
Hum
%
Delta-T
°C
Wind Press
QNH
hPa
Press
MSL
hPa
Rain
since 9 am
mm
Dir
 
Spd
km/h
Gust
km/h
Spd
kts
Gust
kts
03/11:30pm 30.9 - - - - S 20 26 11 14 1013.7 1012.8 0.0
03/11:00pm 31.2 - - - - S 17 22 9 12 1013.7 1012.8 0.0
03/10:30pm 31.4 - - - - S 13 17 7 9 1013.6 1012.7 0.0
03/10:00pm 32.2 - - - - SSE 13 17 7 9 1013.3 1012.4 0.0
03/09:30pm 32.9 - - - - SSE 15 19 8 10 1012.9 1012.0 0.0
03/09:00pm 33.7 - - - - SSE 17 24 9 13 1012.6 1011.6 0.0
03/08:30pm 34.4 - - - - SSE 24 35 13 19 1012.2 1011.2 0.0
03/08:00pm 35.2 - - - - S 26 35 14 19 1011.8 1010.8 0.0
03/07:30pm 36.1 - - - - SSE 30 37 16 20 1011.4 1010.4 0.0
03/07:00pm 37.1 - - - - S 26 37 14 20 1011.2 1010.2 0.0
03/06:30pm 37.6 - - - - S 28 35 15 19 1011.0 1010.0 0.0
03/06:00pm 38.0 - - - - S 24 32 13 17 1010.8 1009.8 0.0
03/05:30pm 38.4 - - - - S 24 37 13 20 1010.7 1009.7 0.0
03/05:00pm 38.6 - - - - S 24 33 13 18 1010.7 1009.7 0.0
03/04:30pm 38.7 - - - - SSW 24 35 13 19 1010.8 1009.8 0.0
03/04:00pm 38.5 - - - - S 20 32 11 17 1011.0 1010.0 0.0
03/03:30pm 37.7 - - - - S 22 32 12 17 1011.3 1010.3 0.0
03/03:00pm 38.0 - - - - S 24 39 13 21 1011.7 1010.7 0.0
03/02:30pm 37.2 - - - - S 26 39 14 21 1011.9 1010.9 0.0
03/02:00pm 36.6 - - - - SSE 20 28 11 15 1012.4 1011.4 0.0
03/01:30pm 36.5 - - - - S 24 35 13 19 1012.7 1011.7 0.0
03/01:00pm 35.6 - - - - S 24 35 13 19 1013.1 1012.2 0.0
03/12:30pm 34.3 - - - - S 26 35 14 19 1013.4 1012.5 0.0
03/12:00pm 34.3 - - - - SSE 24 32 13 17 1013.7 1012.8 0.0
03/11:30am 32.9 - - - - SSE 20 26 11 14 1013.7 1012.8 0.0
03/11:00am 31.7 - - - - S 19 26 10 14 1013.8 1012.9 0.0
03/10:30am 30.0 - - - - S 20 26 11 14 1013.8 1012.9 0.0
03/10:00am 29.5 - - - - S 20 28 11 15 1013.4 1012.5 0.0
03/09:30am 28.9 - - - - SSE 19 26 10 14 1013.0 1012.1 0.0
03/09:00am 27.8 - - - - SSE 17 24 9 13 1012.9 1012.0 0.0
03/08:30am 26.2 - - - - S 13 17 7 9 1012.7 1011.7 0.0
03/08:00am 24.6 - - - - S 13 17 7 9 1012.4 1011.4 0.0
03/07:30am 23.7 - - - - S 15 19 8 10 1012.0 1011.0 0.0
03/07:00am 24.4 - - - - SSE 15 19 8 10 1011.8 1010.8 0.0
03/06:30am 24.0 - - - - S 13 17 7 9 1011.8 1010.8 0.0
03/06:00am 24.9 - - - - SSE 17 20 9 11 1011.5 1010.5 0.0
03/05:30am 24.8 - - - - S 15 19 8 10 1011.3 1010.3 0.0
03/05:00am 25.2 - - - - S 15 20 8 11 1011.1 1010.1 0.0
03/04:30am 25.5 - - - - S 17 20 9 11 1011.2 1010.2 0.0
03/04:00am 25.5 - - - - SSW 17 22 9 12 1011.3 1010.3 0.0
03/03:30am 25.9 - - - - S 13 17 7 9 1011.3 1010.3 0.0
03/03:00am 26.6 - - - - S 15 20 8 11 1011.4 1010.4 0.0
03/02:30am 27.5 - - - - SSE 20 26 11 14 1011.3 1010.3 0.0
03/02:00am 27.7 - - - - SSE 17 24 9 13 1011.6 1010.6 0.0
03/01:30am 28.4 - - - - SSE 17 24 9 13 1011.6 1010.6 0.0
03/01:00am 28.9 - - - - S 24 30 13 16 1011.3 1010.3 0.0
03/12:30am 29.3 - - - - S 20 28 11 15 1011.2 1010.2 0.0
03/12:00am 29.6 - - - - S 20 26 11 14 1011.0 1010.0 0.0
 
Date/Time
EDT
Temp
°C
App
Temp
°C
Dew
Point
Rel
Hum
%
Delta-T
°C
Wind Press
QNH
hPa
Press
MSL
hPa
Rain
since 9 am
mm
Dir
 
Spd
km/h
Gust
km/h
Spd
kts
Gust
kts
02/11:30pm 30.2 - - - - S 22 32 12 17 1011.0 1010.0 0.0
02/11:00pm 30.7 - - - - S 24 30 13 16 1010.9 1009.9 0.0
02/10:30pm 31.4 - - - - S 26 33 14 18 1010.7 1009.7 0.0
02/10:00pm 32.0 - - - - S 22 32 12 17 1010.6 1009.6 0.0
02/09:30pm 33.0 - - - - S 20 26 11 14 1010.1 1009.2 0.0
02/09:00pm 33.8 - - - - S 19 24 10 13 1009.8 1008.9 0.0
02/08:30pm 34.5 - - - - S 20 26 11 14 1009.5 1008.6 0.0
02/08:00pm 35.4 - - - - S 13 19 7 10 1009.2 1008.3 0.0
02/07:30pm 36.2 - - - - S 9 15 5 8 1008.9 1008.0 0.0
02/07:00pm 36.5 - - - - S 11 17 6 9 1008.6 1007.7 0.0
02/06:30pm 36.8 - - - - SE 11 20 6 11 1008.4 1007.5 0.0
02/06:00pm 37.0 - - - - S 15 22 8 12 1008.2 1007.3 0.0
02/05:30pm 37.0 - - - - E 13 20 7 11 1008.0 1007.1 0.0
02/05:00pm 36.5 - - - - ESE 9 19 5 10 1008.1 1007.2 0.0
02/04:30pm 36.6 - - - - SE 15 20 8 11 1008.5 1007.6 0.0
02/04:00pm 36.6 - - - - S 13 20 7 11 1008.7 1007.8 0.0
02/03:30pm 35.9 - - - - ESE 13 17 7 9 1008.9 1008.0 0.0

Other Formats:

Comma delimited format used in spreadsheet applications
http://www.bom.gov.au/fwo/IDN60801/IDN60801.95485.axf

JavaScript Object Notation format (JSON) in row-major order
http://www.bom.gov.au/fwo/IDN60801/IDN60801.95485.json